Time;durP1;ratioP1;P1;durP2;ratioP2;P2;SDS_P1;SDS_P2;PMS_P1;PMS_P2;Temp;Humidity;BMP_temperature;BMP_pressure;BME280_temperature;BME280_humidity;BME280_pressure;Samples;Min_cycle;Max_cycle;Signal;HPM_P1;HPM_P2
2022/10/25 00:02:20;;;;;;;;;;;;;;;11.63;99.65;99606.45;1674051;85;20191;-86
2022/10/25 00:04:47;;;;;;;;;;;;;;;11.62;99.29;99603.44;1673782;85;20539;-85
2022/10/25 00:07:14;;;;;;;;;;;;;;;11.60;98.96;99595.59;1673676;84;22081;-82
2022/10/25 00:09:42;;;;;;;;;;;;;;;11.56;98.76;99598.39;1673760;84;20144;-85
2022/10/25 00:12:08;;;;;;;;;;;;;;;11.53;98.73;99604.18;1673675;84;20516;-86
2022/10/25 00:14:35;;;;;;;;;;;;;;;11.51;98.63;99598.09;1673837;84;20232;-86
2022/10/25 00:17:01;;;;;;;;;;;;;;;11.49;98.53;99585.90;1674043;84;20199;-86
2022/10/25 00:19:29;;;;;;;;;;;;;;;11.47;98.11;99579.37;1673644;84;20199;-87
2022/10/25 00:21:55;;;;;;;;;;;;;;;11.45;97.78;99582.99;1673644;85;20194;-86
2022/10/25 00:24:22;;;;;;;;;;;;;;;11.40;97.50;99576.57;1673935;85;20148;-85
2022/10/25 00:26:48;;;;;;;;;;;;;;;11.38;97.21;99570.94;1673765;84;20932;-86
2022/10/25 00:29:15;;;;;;;;;;;;;;;11.37;97.12;99577.99;1673687;85;20534;-86
2022/10/25 00:31:43;;;;;;;;;;;;;;;11.34;97.38;99573.69;1673930;84;21148;-85
2022/10/25 00:34:09;;;;;;;;;;;;;;;11.33;97.59;99569.34;1673891;85;20596;-83
2022/10/25 00:36:37;;;;;;;;;;;;;;;11.34;97.67;99568.41;1673835;84;20426;-84
2022/10/25 00:39:03;;;;;;;;;;;;;;;11.36;97.80;99567.51;1673629;85;20244;-85
2022/10/25 00:41:31;;;;;;;;;;;;;;;11.36;98.04;99561.77;1678913;85;20258;-86
2022/10/25 00:44:37;;;;;;;;;;;;;;;11.36;98.32;99560.45;1683718;85;21102;-84
2022/10/25 00:47:13;;;;;;;;;;;;;;;11.36;98.58;99563.09;1684422;85;20172;-78
2022/10/25 00:49:40;;;;;;;;;;;;;;;11.39;98.73;99553.77;1687472;83;20170;-85
2022/10/25 00:52:06;;;;;;;;;;;;;;;11.38;98.75;99553.81;1687779;84;20283;-85
2022/10/25 00:54:38;;;;;;;;;;;;;;;11.38;98.90;99550.75;1686628;84;20136;-84
2022/10/25 00:57:10;;;;;;;;;;;;;;;11.38;98.87;99552.50;1683996;85;21498;-87
2022/10/25 00:59:37;;;;;;;;;;;;;;;11.38;98.82;99552.50;1683690;85;20210;-85
2022/10/25 01:02:03;;;;;;;;;;;;;;;11.36;98.82;99549.92;1684029;85;20580;-84
2022/10/25 01:04:30;;;;;;;;;;;;;;;11.33;98.82;99545.64;1683656;85;20191;-84
2022/10/25 01:06:56;;;;;;;;;;;;;;;11.32;98.76;99540.43;1683736;85;20211;-84
2022/10/25 01:09:24;;;;;;;;;;;;;;;11.33;98.70;99543.00;1683730;83;21111;-84
2022/10/25 01:11:51;;;;;;;;;;;;;;;11.32;98.47;99535.16;1683937;85;20203;-84
2022/10/25 01:14:18;;;;;;;;;;;;;;;11.32;98.38;99536.01;1683775;85;20254;-84
2022/10/25 01:16:57;;;;;;;;;;;;;;;11.30;98.43;99545.75;1683829;85;20195;-84
2022/10/25 01:19:44;;;;;;;;;;;;;;;11.30;98.56;99538.31;1683679;85;20210;-85
2022/10/25 01:22:15;;;;;;;;;;;;;;;11.31;98.61;99530.80;1683654;85;21887;-84
2022/10/25 01:25:05;;;;;;;;;;;;;;;11.30;98.66;99524.68;1683744;85;20300;-86
2022/10/25 01:27:41;;;;;;;;;;;;;;;11.28;98.73;99520.37;1683915;84;20211;-85
2022/10/25 01:30:22;;;;;;;;;;;;;;;11.27;98.61;99515.56;1636570;86;20206;-84
2022/10/25 01:33:09;;;;;;;;;;;;;;;11.26;98.58;99511.67;1653024;86;20164;-85
2022/10/25 01:35:43;;;;;;;;;;;;;;;11.23;98.44;99515.30;1653333;86;20213;-85
2022/10/25 01:38:28;;;;;;;;;;;;;;;11.22;98.23;99517.98;1652968;86;20471;-84
2022/10/25 01:40:58;;;;;;;;;;;;;;;11.20;98.12;99523.31;1655094;86;20217;-83
2022/10/25 01:43:46;;;;;;;;;;;;;;;11.17;98.02;99514.66;1631127;88;20235;-85
2022/10/25 01:46:25;;;;;;;;;;;;;;;11.12;97.98;99518.31;1631487;87;20223;-83
2022/10/25 01:48:55;;;;;;;;;;;;;;;11.07;97.56;99516.77;1631868;88;21199;-85
2022/10/25 01:51:21;;;;;;;;;;;;;;;11.00;97.07;99512.19;1631321;88;20278;-85
2022/10/25 01:53:49;;;;;;;;;;;;;;;10.94;96.71;99513.72;1609802;88;20144;-84
2022/10/25 01:56:19;;;;;;;;;;;;;;;10.85;96.46;99511.43;1631814;88;20173;-85
2022/10/25 01:58:58;;;;;;;;;;;;;;;10.76;96.42;99513.47;1631607;88;20206;-85
2022/10/25 02:01:52;;;;;;;;;;;;;;;10.72;96.51;99513.16;1632051;88;21127;-84
2022/10/25 02:04:22;;;;;;;;;;;;;;;10.66;95.63;99516.03;1631611;88;20173;-86
2022/10/25 02:07:10;;;;;;;;;;;;;;;10.57;95.83;99513.70;1631995;87;20516;-86
2022/10/25 02:10:13;;;;;;;;;;;;;;;10.51;95.84;99509.98;1631757;88;20171;-86
2022/10/25 02:12:49;;;;;;;;;;;;;;;10.44;95.51;99508.45;1631592;87;20596;-85
2022/10/25 02:15:26;;;;;;;;;;;;;;;10.39;95.27;99509.95;1630961;88;21603;-86
2022/10/25 02:17:56;;;;;;;;;;;;;;;10.35;95.49;99513.12;1631836;88;20266;-85
2022/10/25 02:20:23;;;;;;;;;;;;;;;10.32;95.86;99507.98;1640896;86;20182;-83
2022/10/25 02:22:50;;;;;;;;;;;;;;;10.30;96.32;99512.84;1641495;85;20201;-85
2022/10/25 02:25:17;;;;;;;;;;;;;;;10.27;96.87;99511.19;1641576;85;20200;-87
2022/10/25 02:27:43;;;;;;;;;;;;;;;10.24;97.33;99507.34;1641774;87;21798;-85
2022/10/25 02:30:11;;;;;;;;;;;;;;;10.21;97.50;99516.65;1641375;87;20594;-85
2022/10/25 02:32:38;;;;;;;;;;;;;;;10.19;97.62;99515.84;1641656;87;20174;-82
2022/10/25 02:35:04;;;;;;;;;;;;;;;10.19;98.01;99521.10;1641600;87;20134;-82
2022/10/25 02:37:31;;;;;;;;;;;;;;;10.14;98.47;99525.66;1641462;87;20506;-85
2022/10/25 02:39:58;;;;;;;;;;;;;;;10.10;98.85;99524.87;1641767;87;21260;-86
2022/10/25 02:42:24;;;;;;;;;;;;;;;10.08;99.18;99527.16;1658707;85;20224;-85
2022/10/25 02:44:50;;;;;;;;;;;;;;;10.02;99.42;99522.50;1670184;86;20240;-86
2022/10/25 02:47:16;;;;;;;;;;;;;;;10.01;99.87;99524.72;1669817;86;20156;-85
2022/10/25 02:49:43;;;;;;;;;;;;;;;10.00;100.00;99519.08;1669745;86;20228;-83
2022/10/25 02:52:10;;;;;;;;;;;;;;;9.99;100.00;99518.66;1669840;86;21140;-83
2022/10/25 02:54:37;;;;;;;;;;;;;;;10.01;99.78;99516.83;1669671;86;20460;-84
2022/10/25 02:57:03;;;;;;;;;;;;;;;9.96;98.96;99521.37;1670194;86;20264;-84
2022/10/25 02:59:29;;;;;;;;;;;;;;;9.94;98.42;99531.09;1669926;86;20213;-82
2022/10/25 03:01:56;;;;;;;;;;;;;;;9.93;98.47;99531.98;1669872;86;20263;-83
2022/10/25 03:04:22;;;;;;;;;;;;;;;9.95;98.35;99535.45;1669850;85;21204;-83
2022/10/25 03:06:49;;;;;;;;;;;;;;;9.95;98.32;99530.19;1669691;86;20280;-86
2022/10/25 03:09:17;;;;;;;;;;;;;;;9.94;98.29;99527.14;1669829;86;20204;-85
2022/10/25 03:11:43;;;;;;;;;;;;;;;9.94;98.31;99525.83;1669842;86;20730;-86
2022/10/25 03:14:11;;;;;;;;;;;;;;;9.94;98.28;99520.58;1669927;86;20208;-86
2022/10/25 03:16:39;;;;;;;;;;;;;;;9.94;98.34;99517.95;1669719;86;20208;-82
2022/10/25 03:19:05;;;;;;;;;;;;;;;9.93;98.48;99516.21;1669954;86;20205;-85
2022/10/25 03:21:32;;;;;;;;;;;;;;;9.91;98.68;99516.72;1669753;86;20343;-86
2022/10/25 03:23:58;;;;;;;;;;;;;;;9.91;98.86;99514.09;1670164;86;20228;-85
2022/10/25 03:26:26;;;;;;;;;;;;;;;9.92;99.06;99514.52;1669761;86;20227;-83
2022/10/25 03:28:53;;;;;;;;;;;;;;;9.92;99.29;99516.27;1669813;86;20228;-85
2022/10/25 03:31:20;;;;;;;;;;;;;;;9.92;99.55;99514.52;1669997;86;20197;-83
2022/10/25 03:33:50;;;;;;;;;;;;;;;9.92;99.68;99511.89;1669717;86;20177;-83
2022/10/25 03:36:16;;;;;;;;;;;;;;;9.94;99.75;99513.16;1670205;86;20843;-85
2022/10/25 03:38:42;;;;;;;;;;;;;;;9.95;99.74;99513.54;1669886;86;20273;-86
2022/10/25 03:41:09;;;;;;;;;;;;;;;9.95;99.82;99511.80;1669859;86;21790;-82
2022/10/25 03:43:35;;;;;;;;;;;;;;;9.96;99.91;99500.35;1674366;85;20504;-83
2022/10/25 03:46:01;;;;;;;;;;;;;;;9.97;99.99;99504.71;1674731;85;20204;-86
2022/10/25 03:48:28;;;;;;;;;;;;;;;10.00;100.00;99501.98;1674676;85;20180;-86
2022/10/25 03:50:54;;;;;;;;;;;;;;;10.01;99.96;99499.74;1674759;85;20213;-85
2022/10/25 03:53:20;;;;;;;;;;;;;;;10.02;100.00;99497.53;1674930;85;21794;-87
2022/10/25 03:55:48;;;;;;;;;;;;;;;10.04;100.00;99498.34;1674563;85;20196;-86
2022/10/25 03:58:15;;;;;;;;;;;;;;;10.08;100.00;99496.92;1696178;84;20516;-84
2022/10/25 04:00:41;;;;;;;;;;;;;;;10.10;100.00;99497.27;1695851;84;20230;-86
2022/10/25 04:03:08;;;;;;;;;;;;;;;10.10;100.00;99490.69;1696228;84;20150;-85
2022/10/25 04:05:34;;;;;;;;;;;;;;;10.12;100.00;99493.27;1695782;84;21881;-86
2022/10/25 04:08:02;;;;;;;;;;;;;;;10.13;100.00;99495.00;1695923;84;20265;-85
2022/10/25 04:10:28;;;;;;;;;;;;;;;10.15;100.00;99497.97;1696153;84;20205;-85
2022/10/25 04:12:55;;;;;;;;;;;;;;;10.16;100.00;99488.33;1695926;84;20230;-83
2022/10/25 04:15:22;;;;;;;;;;;;;;;10.19;100.00;99488.23;1695744;84;20151;-84
2022/10/25 04:17:51;;;;;;;;;;;;;;;10.22;100.00;99484.16;1695995;84;20992;-84
2022/10/25 04:20:18;;;;;;;;;;;;;;;10.26;100.00;99484.48;1695831;84;21084;-84
2022/10/25 04:22:45;;;;;;;;;;;;;;;10.29;100.00;99485.70;1695889;84;20531;-85
2022/10/25 04:25:11;;;;;;;;;;;;;;;10.31;100.00;99480.39;1695902;84;20205;-84
2022/10/25 04:27:37;;;;;;;;;;;;;;;10.32;100.00;99489.58;1696158;84;20226;-86
2022/10/25 04:30:05;;;;;;;;;;;;;;;10.35;100.00;99480.70;1695914;84;21194;-84
2022/10/25 04:32:32;;;;;;;;;;;;;;;10.35;100.00;99480.23;1695910;84;20209;-82
2022/10/25 04:34:59;;;;;;;;;;;;;;;10.35;100.00;99480.23;1695982;84;20229;-84
2022/10/25 04:37:25;;;;;;;;;;;;;;;10.36;100.00;99480.66;1696173;84;20205;-87
2022/10/25 04:39:51;;;;;;;;;;;;;;;10.34;100.00;99473.28;1696007;84;20213;-83
2022/10/25 04:42:18;;;;;;;;;;;;;;;10.34;100.00;99474.59;1690211;84;22435;-85
2022/10/25 04:44:44;;;;;;;;;;;;;;;10.34;100.00;99475.91;1676021;85;20175;-82
2022/10/25 04:47:10;;;;;;;;;;;;;;;10.34;100.00;99477.23;1675981;85;20239;-81
2022/10/25 04:49:37;;;;;;;;;;;;;;;10.35;100.00;99465.77;1675990;85;20178;-83
2022/10/25 04:52:04;;;;;;;;;;;;;;;10.36;100.00;99464.88;1676288;85;20215;-85
2022/10/25 04:54:31;;;;;;;;;;;;;;;10.37;100.00;99463.09;1676207;85;21526;-84
2022/10/25 04:56:57;;;;;;;;;;;;;;;10.37;100.00;99467.92;1676169;85;20203;-87
2022/10/25 04:59:23;;;;;;;;;;;;;;;10.36;100.00;99459.62;1676313;85;20548;-84
2022/10/25 05:01:50;;;;;;;;;;;;;;;10.39;100.00;99456.88;1676230;85;20177;-83
2022/10/25 05:04:16;;;;;;;;;;;;;;;10.40;100.00;99458.58;1676141;85;20171;-84
2022/10/25 05:06:43;;;;;;;;;;;;;;;10.41;100.00;99457.68;1676082;85;21171;-85
2022/10/25 05:09:10;;;;;;;;;;;;;;;10.44;100.00;99463.74;1676133;85;20227;-84
2022/10/25 05:11:36;;;;;;;;;;;;;;;10.47;100.00;99460.55;1676333;85;20218;-88
2022/10/25 05:14:03;;;;;;;;;;;;;;;10.50;100.00;99462.22;1676113;85;20509;-82
2022/10/25 05:16:33;;;;;;;;;;;;;;;10.50;100.00;99464.86;1676109;85;20144;-84
2022/10/25 05:19:00;;;;;;;;;;;;;;;10.52;100.00;99472.23;1676081;85;21741;-84
2022/10/25 05:21:29;;;;;;;;;;;;;;;10.55;100.00;99467.71;1676298;85;20227;-84
2022/10/25 05:23:56;;;;;;;;;;;;;;;10.58;100.00;99462.81;1676285;85;20620;-84
2022/10/25 05:26:22;;;;;;;;;;;;;;;10.59;100.00;99468.45;1676312;85;20480;-86
2022/10/25 05:28:49;;;;;;;;;;;;;;;10.61;100.00;99461.39;1676137;85;20466;-83
2022/10/25 05:31:20;;;;;;;;;;;;;;;10.64;100.00;99457.34;1676378;85;21249;-84
2022/10/25 05:33:50;;;;;;;;;;;;;;;10.68;100.00;99462.03;1676362;85;20207;-85
2022/10/25 05:36:17;;;;;;;;;;;;;;;10.70;100.00;99465.46;1676127;85;20250;-84
2022/10/25 05:38:43;;;;;;;;;;;;;;;10.69;100.00;99468.56;1676050;85;20199;-84
2022/10/25 05:41:12;;;;;;;;;;;;;;;10.71;100.00;99464.56;1676275;85;20152;-83
2022/10/25 05:43:39;;;;;;;;;;;;;;;10.74;100.00;99467.94;1676181;85;21141;-84
2022/10/25 05:46:14;;;;;;;;;;;;;;;10.77;100.00;99472.22;1676260;85;20215;-81
2022/10/25 05:48:41;;;;;;;;;;;;;;;10.80;100.00;99466.84;1678503;85;20232;-78
2022/10/25 05:51:10;;;;;;;;;;;;;;;10.83;100.00;99472.47;1681036;83;20121;-77
2022/10/25 05:53:38;;;;;;;;;;;;;;;10.87;100.00;99468.33;1680633;80;20124;-79
2022/10/25 05:56:05;;;;;;;;;;;;;;;10.92;100.00;99472.12;1679842;84;21227;-85
2022/10/25 05:58:31;;;;;;;;;;;;;;;10.95;100.00;99468.06;1676108;85;20239;-84
2022/10/25 06:01:00;;;;;;;;;;;;;;;10.99;99.97;99467.48;1676526;85;20267;-82
2022/10/25 06:03:27;;;;;;;;;;;;;;;11.04;99.53;99474.75;1676171;85;20442;-82
2022/10/25 06:05:53;;;;;;;;;;;;;;;11.08;99.26;99478.54;1676203;85;20223;-85
2022/10/25 06:08:20;;;;;;;;;;;;;;;11.11;99.21;99477.11;1676503;85;21115;-85
2022/10/25 06:10:46;;;;;;;;;;;;;;;11.13;99.16;99475.74;1676126;85;20195;-86
2022/10/25 06:13:12;;;;;;;;;;;;;;;11.19;98.63;99475.95;1676510;85;20239;-86
2022/10/25 06:15:40;;;;;;;;;;;;;;;11.21;98.52;99477.60;1676105;85;20168;-86
2022/10/25 06:18:06;;;;;;;;;;;;;;;11.24;98.42;99468.73;1676620;85;20147;-85
2022/10/25 06:20:33;;;;;;;;;;;;;;;11.28;98.37;99462.42;1676213;85;21916;-85
2022/10/25 06:22:59;;;;;;;;;;;;;;;11.33;98.19;99461.78;1676202;85;20535;-85
2022/10/25 06:25:26;;;;;;;;;;;;;;;11.39;97.91;99460.24;1676449;85;20231;-86
2022/10/25 06:27:52;;;;;;;;;;;;;;;11.43;97.62;99457.02;1676518;85;20784;-86
2022/10/25 06:30:19;;;;;;;;;;;;;;;11.47;97.29;99459.48;1676212;85;20283;-86
2022/10/25 06:32:45;;;;;;;;;;;;;;;11.48;96.71;99459.90;1676155;85;21083;-83
2022/10/25 06:35:12;;;;;;;;;;;;;;;11.53;96.35;99462.33;1676050;85;20172;-85
2022/10/25 06:37:38;;;;;;;;;;;;;;;11.59;95.86;99467.84;1676108;85;20210;-86
2022/10/25 06:40:05;;;;;;;;;;;;;;;11.63;95.42;99474.69;1676256;85;20259;-85
2022/10/25 06:42:32;;;;;;;;;;;;;;;11.66;95.27;99470.62;1676757;85;20477;-82
2022/10/25 06:44:58;;;;;;;;;;;;;;;11.71;95.17;99471.30;1680882;85;21205;-85
2022/10/25 06:47:24;;;;;;;;;;;;;;;11.78;95.03;99462.67;1680636;85;20168;-82
2022/10/25 06:49:51;;;;;;;;;;;;;;;11.85;94.83;99472.92;1680661;85;20143;-84
2022/10/25 06:52:18;;;;;;;;;;;;;;;11.90;94.58;99468.77;1680656;85;20223;-86
2022/10/25 06:54:44;;;;;;;;;;;;;;;11.95;94.34;99466.83;1680799;85;20540;-87
2022/10/25 06:57:10;;;;;;;;;;;;;;;12.05;93.87;99465.99;1680398;85;21222;-85
2022/10/25 06:59:37;;;;;;;;;;;;;;;12.14;93.85;99461.66;1680563;84;20202;-84
2022/10/25 07:02:04;;;;;;;;;;;;;;;12.22;93.43;99459.56;1680605;85;20210;-85
2022/10/25 07:04:31;;;;;;;;;;;;;;;12.29;92.83;99455.33;1681064;85;20235;-84
2022/10/25 07:06:58;;;;;;;;;;;;;;;12.32;92.01;99452.56;1680726;85;20254;-85
2022/10/25 07:09:25;;;;;;;;;;;;;;;12.39;91.52;99453.57;1680595;84;21551;-82
2022/10/25 07:11:51;;;;;;;;;;;;;;;12.45;91.22;99455.92;1680804;85;21028;-84
2022/10/25 07:14:18;;;;;;;;;;;;;;;12.50;90.55;99453.09;1680601;85;20231;-86
2022/10/25 07:16:44;;;;;;;;;;;;;;;12.55;90.54;99448.47;1680788;85;20254;-80
2022/10/25 07:19:12;;;;;;;;;;;;;;;12.60;90.45;99446.48;1680675;85;20135;-83
2022/10/25 07:21:38;;;;;;;;;;;;;;;12.69;90.00;99435.97;1680758;85;21065;-83
2022/10/25 07:24:05;;;;;;;;;;;;;;;12.76;89.74;99439.19;1680664;85;20231;-85
2022/10/25 07:26:33;;;;;;;;;;;;;;;12.84;89.74;99441.03;1680839;85;20513;-85
2022/10/25 07:29:00;;;;;;;;;;;;;;;12.94;88.93;99433.55;1680740;84;20989;-86
2022/10/25 07:31:34;;;;;;;;;;;;;;;13.04;89.00;99440.60;1680859;84;20512;-81
2022/10/25 07:34:02;;;;;;;;;;;;;;;13.14;88.85;99437.92;1680531;84;21124;-86
2022/10/25 07:36:28;;;;;;;;;;;;;;;13.23;88.12;99436.63;1680519;85;20223;-82
2022/10/25 07:38:56;;;;;;;;;;;;;;;13.29;87.62;99426.62;1680606;84;20214;-85
2022/10/25 07:41:23;;;;;;;;;;;;;;;13.36;87.15;99422.83;1680906;85;20223;-82
2022/10/25 07:43:50;;;;;;;;;;;;;;;13.43;87.14;99431.31;1684712;85;20167;-84
2022/10/25 07:46:18;;;;;;;;;;;;;;;13.50;86.66;99422.16;1688453;85;20194;-85
2022/10/25 07:48:44;;;;;;;;;;;;;;;13.58;86.61;99421.77;1688393;85;20453;-85
2022/10/25 07:51:12;;;;;;;;;;;;;;;13.63;85.25;99419.75;1688522;85;20695;-82
2022/10/25 07:53:38;;;;;;;;;;;;;;;13.68;85.14;99425.67;1688742;85;20206;-83
2022/10/25 07:56:05;;;;;;;;;;;;;;;13.75;85.10;99426.23;1688414;85;20494;-85
2022/10/25 07:58:33;;;;;;;;;;;;;;;13.81;84.68;99427.73;1688438;85;21155;-82
2022/10/25 08:01:04;;;;;;;;;;;;;;;13.86;83.93;99428.36;1688674;85;20382;-84
2022/10/25 08:03:30;;;;;;;;;;;;;;;13.90;83.48;99420.65;1688515;85;20230;-84
2022/10/25 08:05:56;;;;;;;;;;;;;;;13.95;83.44;99418.62;1688788;85;20333;-84
2022/10/25 08:08:24;;;;;;;;;;;;;;;14.02;83.45;99414.77;1688496;85;20163;-82
2022/10/25 08:10:51;;;;;;;;;;;;;;;14.08;83.14;99413.59;1688580;85;21507;-83
2022/10/25 08:13:17;;;;;;;;;;;;;;;14.12;82.39;99412.04;1688528;85;20246;-84
2022/10/25 08:15:50;;;;;;;;;;;;;;;14.17;81.62;99414.91;1688696;85;20159;-87
2022/10/25 08:18:18;;;;;;;;;;;;;;;14.21;81.12;99412.51;1688490;83;20277;-83
2022/10/25 08:20:45;;;;;;;;;;;;;;;14.23;81.05;99407.98;1688277;85;20140;-84
2022/10/25 08:23:12;;;;;;;;;;;;;;;14.26;80.64;99406.51;1688445;85;21216;-86
2022/10/25 08:25:38;;;;;;;;;;;;;;;14.28;80.35;99408.60;1688348;85;20602;-84
2022/10/25 08:28:05;;;;;;;;;;;;;;;14.30;79.77;99413.34;1688446;84;20224;-85
2022/10/25 08:30:31;;;;;;;;;;;;;;;14.31;79.55;99409.30;1688462;85;20258;-85
2022/10/25 08:32:57;;;;;;;;;;;;;;;14.34;79.23;99403.00;1688663;85;20234;-82
2022/10/25 08:35:23;;;;;;;;;;;;;;;14.37;79.60;99402.81;1688307;85;21123;-84
2022/10/25 08:37:50;;;;;;;;;;;;;;;14.39;78.95;99399.65;1688695;85;20171;-85
2022/10/25 08:40:18;;;;;;;;;;;;;;;14.41;78.74;99402.22;1688645;85;20146;-86
2022/10/25 08:43:08;;;;;;;;;;;;;;;14.41;78.13;99409.67;1688400;85;20199;-85
2022/10/25 08:45:38;;;;;;;;;;;;;;;14.41;78.84;99401.73;1688397;83;20144;-79
2022/10/25 08:48:12;;;;;;;;;;;;;;;14.43;79.26;99405.16;1688536;85;21149;-85
2022/10/25 08:50:45;;;;;;;;;;;;;;;14.45;79.45;99408.57;1688319;83;20140;-83
2022/10/25 08:53:15;;;;;;;;;;;;;;;14.48;79.34;99407.57;1688783;85;20941;-85
2022/10/25 08:55:42;;;;;;;;;;;;;;;14.48;78.94;99408.41;1688267;85;20230;-85
2022/10/25 08:58:17;;;;;;;;;;;;;;;14.48;79.04;99407.09;1688457;85;20179;-86
2022/10/25 09:00:44;;;;;;;;;;;;;;;14.48;78.89;99407.57;1688380;85;21162;-85
2022/10/25 09:03:17;;;;;;;;;;;;;;;14.44;79.12;99402.91;1688675;85;20203;-85
2022/10/25 09:06:08;;;;;;;;;;;;;;;14.43;79.26;99402.50;1688406;83;20242;-86
2022/10/25 09:08:41;;;;;;;;;;;;;;;14.45;79.57;99401.95;1688447;85;20478;-84
2022/10/25 09:11:25;;;;;;;;;;;;;;;14.49;79.44;99401.31;1688569;85;20218;-85
2022/10/25 09:14:08;;;;;;;;;;;;;;;14.52;79.46;99395.02;1652290;85;22437;-85
2022/10/25 09:16:50;;;;;;;;;;;;;;;14.52;79.39;99390.57;1652676;85;20167;-82
2022/10/25 09:19:26;;;;;;;;;;;;;;;14.54;79.26;99388.72;1652872;86;20218;-85
2022/10/25 09:22:02;;;;;;;;;;;;;;;14.53;79.48;99386.16;1650873;85;20175;-84
2022/10/25 09:24:38;;;;;;;;;;;;;;;14.53;79.57;99378.21;1652645;85;20200;-85
2022/10/25 09:27:20;;;;;;;;;;;;;;;14.54;79.37;99379.45;1652782;85;21155;-83
2022/10/25 09:29:49;;;;;;;;;;;;;;;14.56;79.29;99384.64;1652532;86;20229;-84
2022/10/25 09:32:21;;;;;;;;;;;;;;;14.56;79.35;99384.64;1652993;85;20228;-86
2022/10/25 09:34:47;;;;;;;;;;;;;;;14.56;79.35;99378.02;1652675;86;20230;-85
2022/10/25 09:37:22;;;;;;;;;;;;;;;14.57;79.33;99375.77;1652990;85;20212;-86
2022/10/25 09:39:49;;;;;;;;;;;;;;;14.56;79.19;99372.73;1652810;86;21285;-86
2022/10/25 09:42:28;;;;;;;;;;;;;;;14.58;79.38;99381.47;1652920;86;20194;-84
2022/10/25 09:44:57;;;;;;;;;;;;;;;14.60;79.53;99371.67;1610214;87;20211;-82
2022/10/25 09:47:35;;;;;;;;;;;;;;;14.61;79.32;99366.78;1631101;88;20212;-83
2022/10/25 09:50:16;;;;;;;;;;;;;;;14.62;79.23;99370.64;1630426;88;20235;-85
2022/10/25 09:52:49;;;;;;;;;;;;;;;14.63;78.65;99370.19;1631263;86;21230;-84
2022/10/25 09:55:38;;;;;;;;;;;;;;;14.62;78.27;99369.80;1618502;88;20616;-85
2022/10/25 09:58:04;;;;;;;;;;;;;;;14.60;78.65;99368.55;1631462;86;20218;-86
2022/10/25 10:00:32;;;;;;;;;;;;;;;14.62;78.85;99370.64;1630943;86;21275;-86
2022/10/25 10:02:59;;;;;;;;;;;;;;;14.64;78.84;99371.88;1631123;86;20275;-83
2022/10/25 10:05:25;;;;;;;;;;;;;;;14.63;78.77;99374.16;1631022;88;21860;-85
2022/10/25 10:07:53;;;;;;;;;;;;;;;14.64;78.62;99371.88;1630929;86;20153;-81
2022/10/25 10:10:22;;;;;;;;;;;;;;;14.64;78.44;99371.88;1631343;88;20222;-85
2022/10/25 10:13:01;;;;;;;;;;;;;;;14.64;78.38;99373.20;1630674;86;20550;-85
2022/10/25 10:15:37;;;;;;;;;;;;;;;14.64;78.37;99375.86;1631055;88;20179;-85
2022/10/25 10:18:22;;;;;;;;;;;;;;;14.64;78.44;99370.56;1631244;88;21137;-86
2022/10/25 10:21:01;;;;;;;;;;;;;;;14.65;78.38;99369.64;1630933;88;20274;-86
2022/10/25 10:23:35;;;;;;;;;;;;;;;14.64;78.52;99370.56;1631109;88;20278;-80
2022/10/25 10:26:04;;;;;;;;;;;;;;;14.61;78.53;99366.30;1607165;88;20203;-85
2022/10/25 10:28:31;;;;;;;;;;;;;;;14.62;78.61;99364.02;1630715;88;20234;-86
2022/10/25 10:30:57;;;;;;;;;;;;;;;14.62;78.69;99361.85;1631296;88;21688;-85
2022/10/25 10:33:26;;;;;;;;;;;;;;;14.62;78.86;99365.82;1630974;88;20808;-84
2022/10/25 10:35:53;;;;;;;;;;;;;;;14.62;78.82;99367.14;1631402;88;20214;-84
2022/10/25 10:38:26;;;;;;;;;;;;;;;14.63;78.79;99366.22;1631061;88;20302;-86
2022/10/25 10:41:13;;;;;;;;;;;;;;;14.62;78.98;99366.67;1631442;88;20238;-81
2022/10/25 10:43:40;;;;;;;;;;;;;;;14.61;79.00;99365.45;1631848;87;21239;-82
2022/10/25 10:46:13;;;;;;;;;;;;;;;14.60;79.08;99364.58;1671218;85;20461;-82
2022/10/25 10:48:41;;;;;;;;;;;;;;;14.59;79.09;99359.36;1671226;85;20235;-86
2022/10/25 10:51:07;;;;;;;;;;;;;;;14.58;79.14;99356.31;1671653;85;20272;-84
2022/10/25 10:53:34;;;;;;;;;;;;;;;14.58;79.24;99354.99;1671250;85;20222;-85
2022/10/25 10:56:06;;;;;;;;;;;;;;;14.59;79.25;99354.06;1671646;85;21046;-84
2022/10/25 10:58:37;;;;;;;;;;;;;;;14.58;79.44;99353.19;1671214;85;20151;-84
2022/10/25 11:01:09;;;;;;;;;;;;;;;14.58;79.32;99347.05;1671084;84;20505;-86
2022/10/25 11:03:45;;;;;;;;;;;;;;;14.58;79.45;99351.02;1670643;85;20620;-84
2022/10/25 11:06:26;;;;;;;;;;;;;;;14.57;79.46;99352.79;1671452;85;20262;-84
2022/10/25 11:09:15;;;;;;;;;;;;;;;14.56;79.55;99349.78;1671191;84;21166;-81
2022/10/25 11:11:42;;;;;;;;;;;;;;;14.58;79.70;99347.05;1663971;85;20231;-78
2022/10/25 11:14:12;;;;;;;;;;;;;;;14.58;79.78;99344.41;1671166;85;20212;-84
2022/10/25 11:16:45;;;;;;;;;;;;;;;14.59;79.83;99346.13;1671256;85;20546;-86
2022/10/25 11:19:16;;;;;;;;;;;;;;;14.59;79.84;99347.00;1671340;85;20231;-84
2022/10/25 11:22:05;;;;;;;;;;;;;;;14.60;79.93;99351.34;1671090;85;21576;-81
2022/10/25 11:24:35;;;;;;;;;;;;;;;14.61;79.96;99350.89;1671036;85;20446;-81
2022/10/25 11:27:20;;;;;;;;;;;;;;;14.64;79.95;99344.08;1670971;84;20227;-86
2022/10/25 11:30:05;;;;;;;;;;;;;;;14.67;79.99;99358.48;1670963;85;20176;-84
2022/10/25 11:32:53;;;;;;;;;;;;;;;14.65;79.97;99356.39;1671337;85;20163;-81
2022/10/25 11:35:43;;;;;;;;;;;;;;;14.66;79.70;99351.50;1671165;85;21065;-83
2022/10/25 11:38:25;;;;;;;;;;;;;;;14.63;79.91;99341.91;1671562;85;20216;-84
2022/10/25 11:40:55;;;;;;;;;;;;;;;14.62;79.91;99340.67;1671331;85;20247;-85
2022/10/25 11:43:48;;;;;;;;;;;;;;;14.62;79.99;99340.67;1671741;85;20212;-85
2022/10/25 11:46:42;;;;;;;;;;;;;;;14.63;79.92;99337.09;1673212;84;20223;-85
2022/10/25 11:49:32;;;;;;;;;;;;;;;14.64;80.05;99342.76;1662578;85;22132;-82
2022/10/25 11:52:17;;;;;;;;;;;;;;;14.63;80.10;99345.04;1673483;85;21012;-84
2022/10/25 11:54:50;;;;;;;;;;;;;;;14.59;80.56;99339.50;1644623;85;20222;-85
2022/10/25 11:57:22;;;;;;;;;;;;;;;14.58;81.20;99344.41;1652310;85;20201;-84
2022/10/25 11:59:55;;;;;;;;;;;;;;;14.56;81.37;99344.92;1673990;85;20219;-86
2022/10/25 12:02:37;;;;;;;;;;;;;;;14.52;81.73;99340.75;1673650;84;21124;-85
2022/10/25 12:05:33;;;;;;;;;;;;;;;14.50;81.50;99343.00;1673676;85;20526;-87
2022/10/25 12:08:31;;;;;;;;;;;;;;;14.46;81.46;99338.82;1616306;85;20259;-85
2022/10/25 12:11:04;;;;;;;;;;;;;;;14.42;81.26;99338.58;1673876;85;20623;-82
2022/10/25 12:13:33;;;;;;;;;;;;;;;14.39;81.23;99341.86;1642966;87;21001;-84
2022/10/25 12:15:59;;;;;;;;;;;;;;;14.35;81.37;99335.88;1643442;87;21123;-85
2022/10/25 12:18:35;;;;;;;;;;;;;;;14.30;81.83;99332.14;1622677;87;20253;-85
2022/10/25 12:21:01;;;;;;;;;;;;;;;14.29;82.30;99333.58;1643115;87;20213;-83
2022/10/25 12:23:33;;;;;;;;;;;;;;;14.26;82.33;99336.38;1636847;86;20526;-82
2022/10/25 12:26:09;;;;;;;;;;;;;;;14.21;82.21;99328.67;1643270;87;20229;-82
2022/10/25 12:28:46;;;;;;;;;;;;;;;14.18;82.69;99331.95;1643154;87;21752;-81
2022/10/25 12:31:26;;;;;;;;;;;;;;;14.11;83.23;99330.95;1642791;87;20300;-84
2022/10/25 12:34:05;;;;;;;;;;;;;;;14.06;83.82;99329.48;1643048;86;20220;-86
2022/10/25 12:36:41;;;;;;;;;;;;;;;14.04;84.37;99322.10;1642974;87;20142;-86
2022/10/25 12:39:21;;;;;;;;;;;;;;;14.02;85.14;99328.80;1643377;86;20210;-85
2022/10/25 12:41:50;;;;;;;;;;;;;;;14.00;85.33;99327.98;1643060;86;21836;-82
2022/10/25 12:44:50;;;;;;;;;;;;;;;13.99;85.71;99319.69;1643240;87;20226;-87
2022/10/25 12:47:38;;;;;;;;;;;;;;;13.99;86.08;99326.30;1642954;87;20225;-86
2022/10/25 12:50:23;;;;;;;;;;;;;;;13.97;86.47;99320.24;1643305;87;20337;-86
2022/10/25 12:53:28;;;;;;;;;;;;;;;14.00;86.78;99317.89;1590026;89;20222;-85
2022/10/25 12:56:16;;;;;;;;;;;;;;;14.01;87.21;99317.81;1637548;87;21572;-82
2022/10/25 12:59:06;;;;;;;;;;;;;;;14.00;87.46;99317.41;1631635;86;20261;-84
2022/10/25 13:01:46;;;;;;;;;;;;;;;13.98;87.52;99323.25;1631399;88;20231;-85
2022/10/25 13:04:25;;;;;;;;;;;;;;;13.97;87.87;99322.01;1631625;86;20500;-85
2022/10/25 13:06:52;;;;;;;;;;;;;;;13.94;88.21;99314.63;1553235;92;20414;-85